Time;durP1;ratioP1;P1;durP2;ratioP2;P2;SDS_P1;SDS_P2;PMS_P1;PMS_P2;Temp;Humidity;BMP_temperature;BMP_pressure;BME280_temperature;BME280_humidity;BME280_pressure;Samples;Min_cycle;Max_cycle;Signal;HPM_P1;HPM_P2
2023/06/11 13:39:53;;;;;;;4.18;3.80;;;;;;;;;;6238979;22;20027;-83
2023/06/11 13:42:18;;;;;;;4.20;3.80;;;;;;;;;;6281294;22;20082;-83
2023/06/11 13:44:44;;;;;;;4.50;4.10;;;;;;;;;;6302695;22;20460;-83
2023/06/11 13:47:10;;;;;;;4.78;3.22;;;;;;;;;;6307049;22;20086;-87
2023/06/11 13:49:35;;;;;;;3.78;3.47;;;;;;;;;;6306771;22;20034;-84
2023/06/11 13:52:01;;;;;;;5.82;4.53;;;;;;;;;;6306823;22;20023;-84
2023/06/11 13:54:28;;;;;;;4.68;4.18;;;;;;;;;;6305734;22;20011;-84
2023/06/11 13:56:54;;;;;;;4.18;3.88;;;;;;;;;;6305988;22;20000;-83
2023/06/11 13:59:20;;;;;;;4.70;4.30;;;;;;;;;;6306716;22;20006;-83
2023/06/11 14:01:46;;;;;;;4.78;3.58;;;;;;;;;;6278630;22;20011;-83
2023/06/11 14:04:12;;;;;;;4.20;3.70;;;;;;;;;;6306080;22;19999;-84
2023/06/11 14:06:38;;;;;;;3.67;3.38;;;;;;;;;;6305961;22;20007;-83
2023/06/11 14:09:04;;;;;;;4.18;3.85;;;;;;;;;;6306467;22;20065;-84
2023/06/11 14:11:30;;;;;;;4.15;3.75;;;;;;;;;;6306184;22;20368;-83
2023/06/11 14:13:57;;;;;;;3.85;3.55;;;;;;;;;;6306157;22;20007;-83
2023/06/11 14:16:23;;;;;;;4.03;3.72;;;;;;;;;;6305962;22;19999;-83
2023/06/11 14:18:49;;;;;;;4.03;3.70;;;;;;;;;;6306663;22;20061;-88
2023/06/11 14:21:15;;;;;;;3.50;3.20;;;;;;;;;;6306238;22;19999;-83
2023/06/11 14:23:40;;;;;;;4.05;3.75;;;;;;;;;;6305899;22;20366;-83
2023/06/11 14:26:06;;;;;;;4.05;3.75;;;;;;;;;;6305764;22;20057;-88
2023/06/11 14:28:31;;;;;;;4.68;4.28;;;;;;;;;;6306247;22;20010;-83
2023/06/11 14:30:57;;;;;;;4.72;4.00;;;;;;;;;;6306111;22;19996;-84
2023/06/11 14:33:22;;;;;;;4.40;4.00;;;;;;;;;;6306042;22;20014;-83
2023/06/11 14:35:50;;;;;;;4.95;4.00;;;;;;;;;;6306068;22;20013;-83
2023/06/11 14:38:16;;;;;;;4.20;3.80;;;;;;;;;;6306065;22;20006;-83
2023/06/11 14:40:42;;;;;;;4.22;3.60;;;;;;;;;;6306478;22;19999;-84
2023/06/11 14:43:07;;;;;;;3.78;3.47;;;;;;;;;;6306047;22;20003;-84
2023/06/11 14:45:34;;;;;;;5.60;3.60;;;;;;;;;;6306060;22;20014;-83
2023/06/11 14:48:00;;;;;;;4.22;3.88;;;;;;;;;;6306099;22;19999;-84
2023/06/11 14:50:25;;;;;;;4.30;3.90;;;;;;;;;;6306415;22;20045;-84
2023/06/11 14:52:51;;;;;;;4.28;3.72;;;;;;;;;;6306219;22;20472;-84
2023/06/11 14:55:16;;;;;;;6.07;3.67;;;;;;;;;;6306051;22;20331;-85
2023/06/11 14:57:42;;;;;;;4.53;3.65;;;;;;;;;;6306046;22;19999;-82
2023/06/11 15:00:07;;;;;;;4.50;4.07;;;;;;;;;;6306156;22;20076;-82
2023/06/11 15:02:36;;;;;;;4.35;3.67;;;;;;;;;;6305852;22;20007;-82
2023/06/11 15:05:02;;;;;;;4.20;3.80;;;;;;;;;;6305804;22;20471;-82
2023/06/11 15:07:28;;;;;;;4.43;3.38;;;;;;;;;;6305799;22;20431;-81
2023/06/11 15:09:53;;;;;;;4.95;3.60;;;;;;;;;;6306008;22;20004;-81
2023/06/11 15:12:19;;;;;;;4.30;3.83;;;;;;;;;;6305553;22;20008;-83
2023/06/11 15:14:44;;;;;;;3.95;3.55;;;;;;;;;;6305808;22;20007;-84
2023/06/11 15:17:10;;;;;;;3.65;3.35;;;;;;;;;;6306036;22;20003;-83
2023/06/11 15:19:36;;;;;;;3.80;3.50;;;;;;;;;;6306245;22;20003;-85
2023/06/11 15:22:04;;;;;;;4.10;3.70;;;;;;;;;;6306781;22;20022;-81
2023/06/11 15:24:30;;;;;;;5.40;4.90;;;;;;;;;;6307998;22;20057;-82
2023/06/11 15:26:55;;;;;;;6.30;5.70;;;;;;;;;;6307792;22;20074;-81
2023/06/11 15:29:22;;;;;;;4.65;4.18;;;;;;;;;;6308247;22;19999;-82
2023/06/11 17:17:49;;;;;;;4.25;3.90;;;;;;;;;;6278451;22;20435;-83
2023/06/11 17:20:16;;;;;;;4.38;3.97;;;;;;;;;;6308749;22;20039;-85
2023/06/11 17:22:47;;;;;;;4.10;3.70;;;;;;;;;;6309062;22;20003;-86
2023/06/11 17:25:13;;;;;;;4.13;3.65;;;;;;;;;;6309686;22;20000;-92
2023/06/11 17:27:39;;;;;;;4.20;3.50;;;;;;;;;;6307902;22;20007;-92
2023/06/11 17:30:05;;;;;;;4.45;4.15;;;;;;;;;;6309377;22;20078;-90
2023/06/11 17:32:30;;;;;;;4.43;4.00;;;;;;;;;;6307771;22;20430;-90
2023/06/11 17:34:56;;;;;;;4.22;3.78;;;;;;;;;;6307753;22;20034;-91
2023/06/11 17:37:23;;;;;;;4.03;3.67;;;;;;;;;;6309207;22;20023;-92
2023/06/11 17:39:48;;;;;;;5.60;3.70;;;;;;;;;;6308910;22;19999;-92
2023/06/11 17:42:14;;;;;;;5.05;3.88;;;;;;;;;;6308241;22;20040;-88
2023/06/11 17:44:39;;;;;;;3.83;3.53;;;;;;;;;;6309611;22;20429;-89
2023/06/11 17:47:05;;;;;;;4.38;3.90;;;;;;;;;;6307871;22;20003;-91
2023/06/11 17:49:30;;;;;;;5.10;3.75;;;;;;;;;;6309872;22;20003;-93
2023/06/11 17:51:56;;;;;;;4.07;3.67;;;;;;;;;;6307861;22;20014;-93
2023/06/11 17:54:21;;;;;;;4.25;3.95;;;;;;;;;;6307214;22;20050;-91
2023/06/11 17:56:47;;;;;;;5.03;3.90;;;;;;;;;;6309096;22;20026;-89
2023/06/11 17:59:12;;;;;;;3.60;3.30;;;;;;;;;;6309051;22;19999;-89
2023/06/11 18:01:37;;;;;;;4.32;3.92;;;;;;;;;;6307079;22;20334;-89
2023/06/11 18:04:03;;;;;;;3.90;3.63;;;;;;;;;;6308926;22;20027;-90
2023/06/11 18:06:32;;;;;;;4.00;3.65;;;;;;;;;;6307550;22;20003;-89
2023/06/11 18:08:58;;;;;;;;;;;;;;;;;;6308972;22;20006;-88
2023/06/11 18:11:23;;;;;;;4.20;3.80;;;;;;;;;;6308814;22;19907;-91
2023/06/11 18:13:49;;;;;;;5.15;4.00;;;;;;;;;;6310535;22;20053;-88
2023/06/11 18:16:14;;;;;;;3.63;3.33;;;;;;;;;;6307769;22;20003;-91
2023/06/11 18:18:40;;;;;;;4.10;3.70;;;;;;;;;;6303910;22;20018;-89
2023/06/11 18:21:05;;;;;;;3.95;3.65;;;;;;;;;;6304256;22;20011;-90
2023/06/11 18:23:31;;;;;;;3.55;3.25;;;;;;;;;;6306556;22;20330;-90
2023/06/11 18:25:56;;;;;;;4.20;3.55;;;;;;;;;;6307002;22;19999;-91
2023/06/11 18:28:22;;;;;;;4.00;3.50;;;;;;;;;;6306984;22;20004;-88
2023/06/11 18:30:47;;;;;;;3.55;3.25;;;;;;;;;;6305816;22;20422;-94
2023/06/11 18:33:13;;;;;;;3.60;3.30;;;;;;;;;;6304805;22;20017;-86
2023/06/11 18:35:38;;;;;;;6.95;3.85;;;;;;;;;;6306459;22;20004;-86
2023/06/11 18:38:04;;;;;;;4.30;4.00;;;;;;;;;;6305971;22;20038;-86
2023/06/11 18:40:36;;;;;;;5.65;4.38;;;;;;;;;;6309027;22;19999;-86
2023/06/11 18:43:03;;;;;;;3.83;3.53;;;;;;;;;;6308583;22;20033;-91
2023/06/11 18:45:29;;;;;;;3.92;3.63;;;;;;;;;;6304664;22;20048;-84
2023/06/11 18:47:55;;;;;;;6.95;5.88;;;;;;;;;;6306785;22;20078;-86
2023/06/11 18:50:21;;;;;;;4.45;4.05;;;;;;;;;;6306566;22;20038;-87
2023/06/11 18:52:47;;;;;;;3.92;3.53;;;;;;;;;;6306921;22;20003;-88
2023/06/11 18:55:12;;;;;;;3.80;3.50;;;;;;;;;;6305138;22;20007;-88
2023/06/11 18:57:38;;;;;;;4.28;3.97;;;;;;;;;;6308686;22;19995;-84
2023/06/11 19:00:04;;;;;;;4.45;4.05;;;;;;;;;;6306203;22;20004;-85
2023/06/11 19:02:30;;;;;;;4.28;3.90;;;;;;;;;;6306530;22;20007;-85
2023/06/11 19:04:57;;;;;;;4.70;4.30;;;;;;;;;;6305952;22;20003;-88
2023/06/11 19:07:23;;;;;;;8.57;7.78;;;;;;;;;;6305005;22;20003;-83
2023/06/11 19:09:48;;;;;;;12.95;11.32;;;;;;;;;;6306361;22;20052;-83
2023/06/11 19:12:14;;;;;;;10.45;8.75;;;;;;;;;;6306373;22;20383;-83
2023/06/11 19:14:39;;;;;;;7.18;6.47;;;;;;;;;;6306197;22;20072;-83
2023/06/11 19:17:04;;;;;;;6.05;5.55;;;;;;;;;;6306613;22;20007;-82
2023/06/11 19:19:30;;;;;;;4.05;3.70;;;;;;;;;;6305607;22;20023;-84
2023/06/11 19:21:55;;;;;;;3.58;3.28;;;;;;;;;;6304377;22;20086;-82
2023/06/11 19:24:21;;;;;;;4.13;3.72;;;;;;;;;;6305893;22;20351;-81
2023/06/11 19:26:46;;;;;;;3.85;3.55;;;;;;;;;;6306126;22;20011;-82
2023/06/11 19:29:12;;;;;;;4.32;3.92;;;;;;;;;;6306083;22;19999;-85
2023/06/11 19:31:38;;;;;;;3.92;3.63;;;;;;;;;;6305299;22;20011;-82
2023/06/11 19:34:04;;;;;;;4.13;3.78;;;;;;;;;;6305674;22;20011;-82
2023/06/11 19:36:29;;;;;;;3.95;3.65;;;;;;;;;;6307010;22;20069;-84
2023/06/11 19:38:55;;;;;;;4.88;3.70;;;;;;;;;;6304645;22;20407;-83
2023/06/11 19:41:26;;;;;;;3.40;3.08;;;;;;;;;;6305871;22;20000;-81
2023/06/11 19:43:52;;;;;;;3.63;3.28;;;;;;;;;;6304109;22;20007;-82
2023/06/11 19:46:18;;;;;;;3.72;3.42;;;;;;;;;;6304116;22;20078;-82
2023/06/11 19:48:43;;;;;;;3.92;3.60;;;;;;;;;;6305907;22;20007;-84
2023/06/11 19:51:09;;;;;;;4.50;3.70;;;;;;;;;;6305941;22;20323;-84
2023/06/11 19:53:34;;;;;;;3.95;3.65;;;;;;;;;;6307655;22;20370;-82
2023/06/11 19:56:00;;;;;;;3.92;3.63;;;;;;;;;;6307765;22;20071;-82
2023/06/11 19:58:25;;;;;;;3.72;3.42;;;;;;;;;;6306364;22;20003;-82
2023/06/11 20:00:50;;;;;;;3.67;3.38;;;;;;;;;;6307491;22;20010;-85
2023/06/11 20:03:16;;;;;;;3.58;3.20;;;;;;;;;;6307575;22;20418;-83
2023/06/11 20:05:41;;;;;;;4.55;3.55;;;;;;;;;;6307406;22;20327;-82
2023/06/11 20:08:08;;;;;;;4.05;3.53;;;;;;;;;;6307852;22;20000;-83
2023/06/11 20:10:38;;;;;;;3.83;3.53;;;;;;;;;;6307446;22;20003;-81
2023/06/11 20:13:04;;;;;;;3.50;3.30;;;;;;;;;;6307582;22;20003;-81
2023/06/11 20:15:30;;;;;;;3.72;3.42;;;;;;;;;;6305732;22;20018;-82
2023/06/11 20:17:55;;;;;;;3.65;3.35;;;;;;;;;;6307668;22;20433;-81
2023/06/11 20:20:21;;;;;;;3.70;3.42;;;;;;;;;;6307305;22;20006;-82
2023/06/11 20:22:46;;;;;;;3.85;3.55;;;;;;;;;;6307481;22;20007;-81
2023/06/11 20:25:12;;;;;;;3.92;3.30;;;;;;;;;;6308826;22;20083;-82
2023/06/11 20:27:37;;;;;;;6.90;3.83;;;;;;;;;;6309407;22;20017;-82
2023/06/11 20:30:03;;;;;;;3.58;3.28;;;;;;;;;;6309658;22;20003;-82
2023/06/11 20:32:29;;;;;;;4.43;3.95;;;;;;;;;;6307605;22;20003;-83
2023/06/11 20:34:54;;;;;;;3.95;3.65;;;;;;;;;;6309319;22;20003;-82
2023/06/11 20:37:20;;;;;;;4.55;4.07;;;;;;;;;;6309382;22;20003;-81
2023/06/11 20:39:46;;;;;;;4.05;3.65;;;;;;;;;;6307835;22;20008;-81
2023/06/11 20:42:13;;;;;;;3.78;3.40;;;;;;;;;;6309570;22;20012;-83
2023/06/11 20:44:40;;;;;;;4.72;4.25;;;;;;;;;;6309094;22;20418;-83
2023/06/11 20:47:06;;;;;;;5.50;5.00;;;;;;;;;;6309140;22;20074;-83
2023/06/11 20:49:32;;;;;;;5.03;4.63;;;;;;;;;;6309437;22;20006;-83
2023/06/11 20:51:57;;;;;;;4.63;4.22;;;;;;;;;;6309390;22;19999;-83
2023/06/11 20:54:23;;;;;;;4.07;3.70;;;;;;;;;;6309247;22;20015;-83
2023/06/11 20:56:48;;;;;;;4.40;4.00;;;;;;;;;;6307643;22;20086;-83
2023/06/11 20:59:14;;;;;;;4.50;3.80;;;;;;;;;;6309235;22;19999;-83
2023/06/11 21:01:39;;;;;;;4.35;3.95;;;;;;;;;;6309186;22;20007;-82
2023/06/11 21:04:05;;;;;;;4.88;4.00;;;;;;;;;;6308852;22;20478;-83
2023/06/11 21:06:30;;;;;;;5.20;4.15;;;;;;;;;;6309108;22;20003;-83
2023/06/11 21:08:56;;;;;;;4.40;4.00;;;;;;;;;;6309090;22;20010;-83
2023/06/11 21:11:23;;;;;;;4.20;3.10;;;;;;;;;;6309124;22;20011;-82
2023/06/11 21:13:49;;;;;;;5.00;3.10;;;;;;;;;;6308968;22;20003;-82
2023/06/11 21:16:14;;;;;;;3.05;2.75;;;;;;;;;;6309113;22;20006;-82
2023/06/11 21:18:40;;;;;;;2.88;2.63;;;;;;;;;;6308814;22;20011;-81
2023/06/11 21:21:05;;;;;;;3.35;3.05;;;;;;;;;;6308957;22;20368;-82
2023/06/11 21:23:30;;;;;;;3.15;2.85;;;;;;;;;;6308911;22;20037;-82
2023/06/11 21:25:56;;;;;;;2.90;2.70;;;;;;;;;;6309084;22;20026;-82
2023/06/11 21:28:21;;;;;;;3.15;2.85;;;;;;;;;;6307029;22;20003;-82
2023/06/11 21:30:47;;;;;;;2.72;2.53;;;;;;;;;;6309091;22;20003;-82
2023/06/11 21:33:12;;;;;;;3.25;2.90;;;;;;;;;;6308764;22;20011;-82
2023/06/11 21:35:38;;;;;;;4.30;3.08;;;;;;;;;;6309304;22;20528;-82
2023/06/11 21:38:03;;;;;;;3.63;3.03;;;;;;;;;;6309245;22;20017;-82
2023/06/11 21:40:29;;;;;;;3.25;2.78;;;;;;;;;;6309107;22;20023;-82
2023/06/11 21:42:54;;;;;;;3.38;3.00;;;;;;;;;;6307190;22;20364;-82
2023/06/11 21:45:20;;;;;;;3.05;2.75;;;;;;;;;;6308820;22;20091;-82
2023/06/11 21:47:45;;;;;;;3.35;3.05;;;;;;;;;;6308612;22;20070;-82
2023/06/11 21:50:10;;;;;;;3.80;3.10;;;;;;;;;;6308918;22;20086;-82
2023/06/11 21:52:39;;;;;;;4.30;3.20;;;;;;;;;;6281425;22;20046;-82
2023/06/11 21:55:06;;;;;;;3.13;2.83;;;;;;;;;;6308811;22;20082;-81
2023/06/11 21:57:31;;;;;;;3.53;3.22;;;;;;;;;;6308736;22;20010;-80
2023/06/11 21:59:59;;;;;;;3.30;3.00;;;;;;;;;;6308695;22;20003;-81
2023/06/11 22:02:25;;;;;;;3.20;2.90;;;;;;;;;;6308784;22;20007;-80
2023/06/11 22:04:52;;;;;;;3.35;3.05;;;;;;;;;;6308737;22;20004;-81
2023/06/11 22:07:21;;;;;;;3.88;3.17;;;;;;;;;;6308645;22;20011;-82
2023/06/11 22:09:46;;;;;;;4.30;3.20;;;;;;;;;;6308861;22;20049;-80
2023/06/11 22:12:12;;;;;;;5.00;3.30;;;;;;;;;;6307168;22;20015;-81
2023/06/11 22:14:39;;;;;;;4.30;3.42;;;;;;;;;;6308274;22;20011;-81
2023/06/11 22:17:07;;;;;;;4.47;3.38;;;;;;;;;;6308690;22;20003;-81
2023/06/11 22:19:36;;;;;;;3.53;3.20;;;;;;;;;;6308436;22;20026;-80
2023/06/11 22:22:10;;;;;;;3.92;3.53;;;;;;;;;;6308802;22;20015;-80
2023/06/11 22:24:38;;;;;;;3.30;3.00;;;;;;;;;;6308684;22;20371;-80
2023/06/11 22:27:05;;;;;;;3.80;3.15;;;;;;;;;;6308577;22;20318;-80
2023/06/11 22:29:31;;;;;;;3.35;3.05;;;;;;;;;;6308550;22;20452;-80
2023/06/11 22:31:56;;;;;;;3.50;3.20;;;;;;;;;;6308762;22;20021;-81
2023/06/11 22:34:22;;;;;;;4.80;3.88;;;;;;;;;;6308510;22;20010;-80
2023/06/11 22:36:47;;;;;;;3.38;3.08;;;;;;;;;;6307185;22;20322;-80
2023/06/11 22:39:13;;;;;;;3.42;3.13;;;;;;;;;;6308662;22;20003;-81
2023/06/11 22:41:38;;;;;;;3.88;3.40;;;;;;;;;;6308508;22;19999;-80
2023/06/11 22:44:03;;;;;;;4.15;3.45;;;;;;;;;;6306623;22;20449;-81
